createdAt,value
2018-01-20T00:00:43.803Z,94.13
2018-01-20T00:01:43.754Z,94.13
2018-01-20T00:02:43.863Z,94.04
2018-01-20T00:03:43.672Z,94.23
2018-01-20T00:04:43.607Z,94.13
2018-01-20T00:05:43.557Z,94.13
2018-01-20T00:06:43.508Z,93.94
2018-01-20T00:07:43.471Z,94.04
2018-01-20T00:08:43.509Z,94.32
2018-01-20T00:09:43.360Z,94.23
2018-01-20T00:10:43.312Z,93.84
2018-01-20T00:11:43.260Z,93.56
2018-01-20T00:12:43.210Z,93.75
2018-01-20T00:13:43.161Z,93.65
2018-01-20T00:14:43.113Z,93.08
2018-01-20T00:15:43.064Z,92.71
2018-01-20T00:16:43.013Z,93.27
2018-01-20T00:17:42.965Z,93.56
2018-01-20T00:18:42.915Z,93.08
2018-01-20T00:19:42.869Z,93.56
2018-01-20T00:20:42.816Z,93.65
2018-01-20T00:21:42.768Z,93.65
2018-01-20T00:22:42.718Z,93.46
2018-01-20T00:23:42.668Z,93.56
2018-01-20T00:24:42.619Z,94.32
2018-01-20T00:25:42.572Z,93.27
2018-01-20T00:26:42.521Z,93.84
2018-01-20T00:27:42.471Z,94.13
2018-01-20T00:28:42.420Z,94.13
2018-01-20T00:29:42.375Z,94.13
2018-01-20T00:30:42.322Z,94.23
2018-01-20T00:31:42.347Z,94.51
2018-01-20T00:32:42.234Z,94.32
2018-01-20T00:33:42.227Z,94.42
2018-01-20T00:34:42.227Z,94.70
2018-01-20T00:35:42.107Z,94.70
2018-01-20T00:36:42.103Z,94.89
2018-01-20T00:37:41.984Z,95.55
2018-01-20T00:38:41.984Z,95.36
2018-01-20T00:39:41.984Z,95.74
2018-01-20T00:40:41.865Z,95.36
2018-01-20T00:41:41.863Z,95.45
2018-01-20T00:42:41.743Z,96.21
2018-01-20T00:43:41.743Z,95.83
2018-01-20T00:44:41.742Z,96.59
2018-01-20T00:45:41.624Z,96.12
2018-01-20T00:46:41.624Z,96.31
2018-01-20T00:47:41.501Z,96.02
2018-01-20T00:48:41.501Z,96.40
2018-01-20T00:49:41.461Z,96.31
2018-01-20T00:50:41.383Z,96.12
2018-01-20T00:51:41.380Z,95.97
2018-01-20T00:52:41.263Z,95.88
2018-01-20T00:53:41.261Z,95.97
2018-01-20T00:54:41.145Z,95.97
2018-01-20T00:55:41.141Z,95.97
2018-01-20T00:56:41.142Z,96.07
2018-01-20T00:57:41.024Z,95.97
2018-01-20T00:58:41.019Z,96.35
2018-01-20T00:59:40.903Z,95.97
2018-01-20T01:00:40.898Z,95.88
2018-01-20T01:01:40.897Z,96.45
2018-01-20T01:02:40.779Z,96.45
2018-01-20T01:03:40.780Z,96.16
2018-01-20T01:04:40.662Z,96.97
2018-01-20T01:05:40.657Z,96.59
2018-01-20T01:06:40.543Z,97.16
2018-01-20T01:07:40.537Z,96.97
2018-01-20T01:08:40.542Z,97.16
2018-01-20T01:09:40.417Z,97.63
2018-01-20T01:10:40.422Z,98.10
2018-01-20T01:11:40.300Z,97.82
2018-01-20T01:12:40.297Z,98.29
2018-01-20T01:13:40.296Z,98.29
2018-01-20T01:14:40.178Z,98.20
2018-01-20T01:15:40.178Z,98.48
2018-01-20T01:16:40.059Z,98.10
2018-01-20T01:17:40.056Z,99.05
2018-01-20T01:18:40.016Z,98.77
2018-01-20T01:19:39.934Z,99.05
2018-01-20T01:20:39.935Z,99.15
2018-01-20T01:21:39.814Z,99.15
2018-01-20T01:22:39.817Z,99.62
2018-01-20T01:23:39.697Z,99.62
2018-01-20T01:24:39.693Z,99.33
2018-01-20T01:25:39.692Z,99.80
2018-01-20T01:26:39.576Z,99.90
2018-01-20T01:27:39.573Z,99.15
2018-01-20T01:28:39.452Z,99.99
2018-01-20T01:29:39.452Z,99.99
2018-01-20T01:30:39.447Z,99.99
2018-01-20T01:31:39.334Z,99.71
2018-01-20T01:32:39.332Z,99.71
2018-01-20T01:33:39.220Z,99.99
2018-01-20T01:34:39.213Z,99.99
2018-01-20T01:35:39.093Z,99.99
2018-01-20T01:36:39.092Z,99.99
2018-01-20T01:37:39.092Z,99.99
2018-01-20T01:38:38.973Z,99.99
2018-01-20T01:39:38.972Z,99.99
2018-01-20T01:40:38.850Z,99.99
2018-01-20T01:41:38.851Z,99.99
2018-01-20T01:42:38.808Z,99.99
2018-01-20T01:43:38.731Z,99.99
2018-01-20T01:44:38.727Z,99.99
2018-01-20T01:45:38.610Z,99.99
2018-01-20T01:46:38.608Z,99.99
2018-01-20T01:47:38.490Z,99.99
2018-01-20T01:48:38.492Z,99.99
2018-01-20T01:49:38.490Z,99.99
2018-01-20T01:50:38.369Z,99.99
2018-01-20T01:51:38.369Z,99.99
2018-01-20T01:52:38.249Z,99.99
2018-01-20T01:53:38.250Z,99.99
2018-01-20T01:54:38.206Z,99.99
2018-01-20T01:55:38.130Z,99.99
2018-01-20T01:56:38.126Z,99.99
2018-01-20T01:57:38.009Z,99.99
2018-01-20T01:58:38.007Z,99.99
2018-01-20T01:59:37.887Z,99.99
2018-01-20T02:00:37.885Z,99.99
2018-01-20T02:01:37.885Z,99.99
2018-01-20T02:02:37.770Z,99.99
2018-01-20T02:03:37.765Z,99.99
2018-01-20T02:04:37.646Z,99.99
2018-01-20T02:05:37.645Z,99.99
2018-01-20T02:06:37.604Z,99.99
2018-01-20T02:07:37.525Z,99.99
2018-01-20T02:08:37.530Z,99.99
2018-01-20T02:09:37.413Z,99.99
2018-01-20T02:10:37.409Z,99.99
2018-01-20T02:11:37.287Z,99.99
2018-01-20T02:12:37.283Z,99.99
2018-01-20T02:13:37.282Z,99.99
2018-01-20T02:14:37.164Z,99.99
2018-01-20T02:15:37.161Z,99.99
2018-01-20T02:16:37.040Z,99.99
2018-01-20T02:17:37.045Z,99.99
2018-01-20T02:18:37.001Z,99.99
2018-01-20T02:19:36.925Z,99.99
2018-01-20T02:20:36.923Z,99.99
2018-01-20T02:21:36.801Z,99.99
2018-01-20T02:22:36.821Z,99.99
2018-01-20T02:23:36.679Z,99.99
2018-01-20T02:24:36.685Z,99.99
2018-01-20T02:25:36.679Z,99.99
2018-01-20T02:26:36.568Z,99.99
2018-01-20T02:27:36.562Z,99.99
2018-01-20T02:28:36.441Z,99.99
2018-01-20T02:29:36.439Z,99.99
2018-01-20T02:30:36.320Z,99.99
2018-01-20T02:31:36.323Z,99.99
2018-01-20T02:32:36.381Z,99.99
2018-01-20T02:33:36.199Z,99.99
2018-01-20T02:34:36.198Z,99.99
2018-01-20T02:35:36.082Z,99.99
2018-01-20T02:36:36.076Z,99.99
2018-01-20T02:37:36.078Z,99.99
2018-01-20T02:38:35.959Z,99.99
2018-01-20T02:39:35.961Z,99.99
2018-01-20T02:40:35.838Z,99.99
2018-01-20T02:41:35.840Z,99.99
2018-01-20T02:42:35.724Z,99.99
2018-01-20T02:43:35.725Z,99.99
2018-01-20T02:44:35.722Z,99.99
2018-01-20T02:45:35.596Z,99.99
2018-01-20T02:46:35.596Z,99.99
2018-01-20T02:47:35.477Z,99.99
2018-01-20T02:48:35.474Z,99.99
2018-01-20T02:49:35.479Z,99.99
2018-01-20T02:50:35.353Z,99.99
2018-01-20T02:51:35.355Z,99.99
2018-01-20T02:52:35.234Z,99.99
2018-01-20T02:53:35.321Z,99.99
2018-01-20T02:54:35.114Z,99.99
2018-01-20T02:55:35.119Z,99.99
2018-01-20T02:56:35.112Z,99.99
2018-01-20T02:57:34.995Z,99.99
2018-01-20T02:58:34.993Z,99.99
2018-01-20T02:59:34.870Z,99.99
2018-01-20T03:00:34.872Z,99.99
2018-01-20T03:01:34.871Z,99.99
2018-01-20T03:02:34.758Z,99.99
2018-01-20T03:03:34.753Z,99.99
2018-01-20T03:04:34.631Z,99.99
2018-01-20T03:05:34.637Z,99.99
2018-01-20T03:06:34.514Z,99.99
2018-01-20T03:07:34.511Z,99.99
2018-01-20T03:08:34.513Z,99.99
2018-01-20T03:09:34.442Z,99.99
2018-01-20T03:10:34.389Z,99.99
2018-01-20T03:11:34.270Z,99.99
2018-01-20T03:12:34.273Z,99.99
2018-01-20T03:13:34.272Z,99.99
2018-01-20T03:14:34.148Z,99.99
2018-01-20T03:15:34.153Z,99.99
2018-01-20T03:16:34.035Z,99.99
2018-01-20T03:17:34.027Z,99.99
2018-01-20T03:18:34.022Z,99.99
2018-01-20T03:19:33.911Z,99.99
2018-01-20T03:20:33.907Z,99.99
2018-01-20T03:21:33.786Z,99.99
2018-01-20T03:22:33.792Z,99.99
2018-01-20T03:23:33.683Z,99.99
2018-01-20T03:24:33.750Z,99.99
2018-01-20T03:25:33.677Z,99.99
2018-01-20T03:26:33.549Z,99.99
2018-01-20T03:27:33.545Z,99.99
2018-01-20T03:28:33.425Z,99.99
2018-01-20T03:29:33.427Z,99.99
2018-01-20T03:30:33.426Z,99.99
2018-01-20T03:31:33.310Z,99.99
2018-01-20T03:32:33.305Z,99.99
2018-01-20T03:33:33.185Z,99.99
2018-01-20T03:34:33.188Z,99.99
2018-01-20T03:35:33.066Z,99.99
2018-01-20T03:36:33.069Z,99.99
2018-01-20T03:37:33.066Z,99.99
2018-01-20T03:38:32.947Z,99.99
2018-01-20T03:39:32.942Z,99.99
2018-01-20T03:40:32.826Z,99.99
2018-01-20T03:41:32.826Z,99.99
2018-01-20T03:42:32.826Z,99.99
2018-01-20T03:43:32.705Z,99.99
2018-01-20T03:44:32.701Z,99.99
2018-01-20T03:45:32.580Z,99.99
2018-01-20T03:46:32.584Z,99.99
2018-01-20T03:47:32.463Z,99.99
2018-01-20T03:48:32.459Z,99.99
2018-01-20T03:49:32.459Z,99.99
2018-01-20T03:50:32.340Z,99.99
2018-01-20T03:51:32.340Z,99.99
2018-01-20T03:52:32.223Z,99.99
2018-01-20T03:53:32.222Z,99.99
2018-01-20T03:54:32.224Z,99.99
2018-01-20T03:55:32.101Z,99.99
2018-01-20T03:56:32.102Z,99.99
2018-01-20T03:57:31.982Z,99.99
2018-01-20T03:58:31.978Z,99.99
2018-01-20T03:59:31.937Z,99.99
2018-01-20T04:00:31.866Z,99.99
2018-01-20T04:01:31.859Z,99.99
2018-01-20T04:02:31.741Z,99.99
2018-01-20T04:03:31.744Z,99.99
2018-01-20T04:04:31.617Z,99.99
2018-01-20T04:05:31.628Z,99.99
2018-01-20T04:06:31.618Z,99.99
2018-01-20T04:07:31.496Z,99.99
2018-01-20T04:08:31.498Z,99.99
2018-01-20T04:09:31.384Z,99.99
2018-01-20T04:10:31.378Z,99.99
2018-01-20T04:11:31.378Z,99.99
2018-01-20T04:12:31.259Z,99.99
2018-01-20T04:13:31.257Z,99.99
2018-01-20T04:14:31.140Z,99.99
2018-01-20T04:15:31.140Z,99.99
2018-01-20T04:16:31.018Z,99.99
2018-01-20T04:17:31.015Z,99.99
2018-01-20T04:18:31.110Z,99.99
2018-01-20T04:19:30.898Z,99.99
2018-01-20T04:20:30.895Z,99.99
2018-01-20T04:21:30.777Z,99.99
2018-01-20T04:22:30.774Z,99.99
2018-01-20T04:23:30.773Z,99.99
2018-01-20T04:24:30.653Z,99.99
2018-01-20T04:25:30.656Z,99.99
2018-01-20T04:26:30.532Z,99.99
2018-01-20T04:27:30.537Z,99.99
2018-01-20T04:28:30.492Z,99.99
2018-01-20T04:29:30.413Z,99.99
2018-01-20T04:30:30.415Z,99.99
2018-01-20T04:31:30.291Z,99.99
2018-01-20T04:32:30.293Z,99.99
2018-01-20T04:33:30.172Z,99.99
2018-01-20T04:34:30.169Z,99.99
2018-01-20T04:35:30.170Z,99.99
2018-01-20T04:36:30.050Z,99.99
2018-01-20T04:37:30.050Z,99.99
2018-01-20T04:38:29.928Z,99.99
2018-01-20T04:39:29.937Z,99.99
2018-01-20T04:40:29.931Z,99.99
2018-01-20T04:41:29.809Z,99.99
2018-01-20T04:42:29.808Z,99.99
2018-01-20T04:43:29.693Z,99.99
2018-01-20T04:44:29.688Z,99.99
2018-01-20T04:45:29.567Z,99.99
2018-01-20T04:46:29.568Z,99.99
2018-01-20T04:47:29.571Z,99.99
2018-01-20T04:48:29.449Z,99.99
2018-01-20T04:49:29.447Z,99.99
2018-01-20T04:50:29.328Z,99.99
2018-01-20T04:51:29.328Z,99.99
2018-01-20T04:52:29.327Z,99.99
2018-01-20T04:53:29.207Z,99.99
2018-01-20T04:54:29.209Z,99.99
2018-01-20T04:55:29.087Z,99.99
2018-01-20T04:56:29.086Z,99.99
2018-01-20T04:57:29.089Z,99.99
2018-01-20T04:58:28.968Z,99.99
2018-01-20T04:59:28.973Z,99.99
2018-01-20T05:00:28.845Z,99.99
2018-01-20T05:01:28.847Z,99.99
2018-01-20T05:02:28.732Z,99.99
2018-01-20T05:03:28.728Z,99.99
2018-01-20T05:04:28.724Z,99.99
2018-01-20T05:05:28.602Z,99.99
2018-01-20T05:06:28.604Z,99.99
2018-01-20T05:07:28.486Z,99.99
2018-01-20T05:08:28.484Z,99.99
2018-01-20T05:09:28.484Z,99.99
2018-01-20T05:10:28.366Z,99.99
2018-01-20T05:11:28.362Z,99.99
2018-01-20T05:12:28.245Z,99.99
2018-01-20T05:13:28.244Z,99.99
2018-01-20T05:14:28.200Z,99.99
2018-01-20T05:15:28.121Z,99.99
2018-01-20T05:16:28.123Z,99.99
2018-01-20T05:17:28.001Z,99.99
2018-01-20T05:18:28.000Z,99.99
2018-01-20T05:19:27.878Z,99.99
2018-01-20T05:20:27.880Z,99.99
2018-01-20T05:21:27.880Z,99.99
2018-01-20T05:22:27.765Z,99.99
2018-01-20T05:23:27.760Z,99.99
2018-01-20T05:24:27.642Z,99.99
2018-01-20T05:25:27.642Z,99.99
2018-01-20T05:26:27.639Z,99.99
2018-01-20T05:27:27.517Z,99.99
2018-01-20T05:28:27.520Z,99.99
2018-01-20T05:29:27.400Z,99.99
2018-01-20T05:30:27.404Z,99.99
2018-01-20T05:31:27.281Z,99.99
2018-01-20T05:32:27.280Z,99.99
2018-01-20T05:33:27.284Z,99.99
2018-01-20T05:34:27.173Z,99.99
2018-01-20T05:35:27.162Z,99.99
2018-01-20T05:36:27.036Z,99.99
2018-01-20T05:37:27.047Z,99.99
2018-01-20T05:38:27.038Z,99.99
2018-01-20T05:39:26.922Z,99.99
2018-01-20T05:40:26.920Z,99.99
2018-01-20T05:41:26.798Z,99.99
2018-01-20T05:42:26.795Z,99.99
2018-01-20T05:43:26.801Z,99.99
2018-01-20T05:44:26.674Z,99.99
2018-01-20T05:45:26.676Z,99.99
2018-01-20T05:46:26.560Z,99.99
2018-01-20T05:47:26.554Z,99.99
2018-01-20T05:48:26.433Z,99.99
2018-01-20T05:49:26.440Z,99.99
2018-01-20T05:50:26.435Z,99.99
2018-01-20T05:51:26.317Z,99.99
2018-01-20T05:52:26.317Z,99.99
2018-01-20T05:53:26.198Z,99.99
2018-01-20T05:54:26.194Z,99.99
2018-01-20T05:55:26.197Z,99.99
2018-01-20T05:56:26.071Z,99.99
2018-01-20T05:57:26.073Z,99.99
2018-01-20T05:58:25.955Z,99.99
2018-01-20T05:59:25.960Z,99.99
2018-01-20T06:00:25.910Z,99.99
2018-01-20T06:01:25.835Z,99.99
2018-01-20T06:02:25.833Z,99.99
2018-01-20T06:03:25.708Z,99.99
2018-01-20T06:04:25.713Z,99.99
2018-01-20T06:05:25.591Z,99.99
2018-01-20T06:06:25.591Z,99.99
2018-01-20T06:07:25.592Z,99.99
2018-01-20T06:08:25.469Z,99.99
2018-01-20T06:09:25.470Z,99.99
2018-01-20T06:10:25.363Z,99.99
2018-01-20T06:11:25.350Z,99.99
2018-01-20T06:12:25.350Z,99.99
2018-01-20T06:13:25.229Z,99.99
2018-01-20T06:14:25.226Z,99.99
2018-01-20T06:15:25.112Z,99.99
2018-01-20T06:16:25.110Z,99.99
2018-01-20T06:17:24.990Z,99.99
2018-01-20T06:18:25.024Z,99.99
2018-01-20T06:19:24.988Z,99.99
2018-01-20T06:20:24.867Z,99.99
2018-01-20T06:21:24.876Z,99.99
2018-01-20T06:22:24.750Z,99.99
2018-01-20T06:23:24.745Z,99.99
2018-01-20T06:24:24.744Z,99.99
2018-01-20T06:25:24.627Z,99.99
2018-01-20T06:26:24.629Z,99.99
2018-01-20T06:27:24.504Z,99.99
2018-01-20T06:28:24.507Z,99.99
2018-01-20T06:29:24.507Z,99.99
2018-01-20T06:30:24.385Z,99.99
2018-01-20T06:31:24.383Z,99.99
2018-01-20T06:32:24.269Z,99.99
2018-01-20T06:33:24.262Z,99.99
2018-01-20T06:34:24.227Z,99.99
2018-01-20T06:35:24.222Z,99.99
2018-01-20T06:36:24.143Z,99.99
2018-01-20T06:37:24.101Z,99.99
2018-01-20T06:38:24.034Z,99.99
2018-01-20T06:39:23.905Z,99.99
2018-01-20T06:40:23.900Z,99.99
2018-01-20T06:41:23.909Z,99.99
2018-01-20T06:42:23.791Z,99.99
2018-01-20T06:43:23.789Z,99.99
2018-01-20T06:44:23.665Z,99.99
2018-01-20T06:45:23.660Z,99.99
2018-01-20T06:46:23.661Z,99.99
2018-01-20T06:47:23.542Z,99.99
2018-01-20T06:48:23.546Z,99.99
2018-01-20T06:49:23.424Z,99.99
2018-01-20T06:50:23.426Z,99.99
2018-01-20T06:51:23.378Z,99.76
2018-01-20T06:52:23.301Z,99.99
2018-01-20T06:53:23.312Z,99.99
2018-01-20T06:54:23.198Z,99.99
2018-01-20T06:55:23.185Z,99.95
2018-01-20T06:56:23.060Z,99.99
2018-01-20T06:57:23.060Z,99.99
2018-01-20T06:58:23.062Z,99.99
2018-01-20T06:59:22.936Z,99.95
2018-01-20T07:00:22.940Z,99.76
2018-01-20T07:01:22.822Z,99.99
2018-01-20T07:02:22.818Z,99.71
2018-01-20T07:03:22.821Z,99.99
2018-01-20T07:04:22.698Z,99.99
2018-01-20T07:05:22.701Z,99.99
2018-01-20T07:06:22.576Z,99.99
2018-01-20T07:07:22.576Z,99.99
2018-01-20T07:08:22.536Z,99.99
2018-01-20T07:09:22.457Z,99.71
2018-01-20T07:10:22.455Z,99.62
2018-01-20T07:11:22.338Z,99.90
2018-01-20T07:12:22.338Z,99.90
2018-01-20T07:13:22.214Z,99.52
2018-01-20T07:14:22.215Z,99.81
2018-01-20T07:15:22.215Z,99.71
2018-01-20T07:16:22.094Z,99.71
2018-01-20T07:17:22.102Z,99.52
2018-01-20T07:18:21.973Z,99.33
2018-01-20T07:19:21.978Z,99.71
2018-01-20T07:20:21.972Z,99.71
2018-01-20T07:21:21.856Z,99.90
2018-01-20T07:22:21.856Z,99.90
2018-01-20T07:23:21.733Z,99.62
2018-01-20T07:24:21.733Z,99.71
2018-01-20T07:25:21.691Z,99.71
2018-01-20T07:26:21.611Z,99.90
2018-01-20T07:27:21.614Z,99.52
2018-01-20T07:28:21.495Z,99.81
2018-01-20T07:29:21.490Z,99.81
2018-01-20T07:30:21.373Z,99.62
2018-01-20T07:31:21.371Z,99.90
2018-01-20T07:32:21.369Z,99.43
2018-01-20T07:33:21.249Z,99.52
2018-01-20T07:34:21.250Z,99.71
2018-01-20T07:35:21.129Z,99.90
2018-01-20T07:36:21.128Z,99.90
2018-01-20T07:37:21.128Z,99.24
2018-01-20T07:38:21.011Z,99.24
2018-01-20T07:39:21.008Z,99.15
2018-01-20T07:40:20.887Z,99.33
2018-01-20T07:41:20.890Z,98.96
2018-01-20T07:42:20.846Z,98.96
2018-01-20T07:43:20.769Z,98.86
2018-01-20T07:44:20.769Z,98.96
2018-01-20T07:45:20.647Z,98.96
2018-01-20T07:46:20.657Z,98.68
2018-01-20T07:47:20.530Z,98.77
2018-01-20T07:48:20.525Z,98.68
2018-01-20T07:49:20.527Z,98.58
2018-01-20T07:50:20.414Z,99.15
2018-01-20T07:51:20.405Z,99.24
2018-01-20T07:52:20.289Z,98.86
2018-01-20T07:53:20.288Z,99.15
2018-01-20T07:54:20.288Z,99.99
2018-01-20T07:55:20.164Z,99.90
2018-01-20T07:56:20.164Z,99.71
2018-01-20T07:57:20.044Z,99.24
2018-01-20T07:58:20.044Z,98.96
2018-01-20T07:59:20.003Z,99.33
2018-01-20T08:00:19.923Z,99.33
2018-01-20T08:01:19.922Z,99.99
2018-01-20T08:02:19.803Z,99.15
2018-01-20T08:03:19.807Z,99.90
2018-01-20T08:04:19.682Z,99.15
2018-01-20T08:05:19.681Z,99.24
2018-01-20T08:06:19.684Z,98.86
2018-01-20T08:07:19.565Z,98.96
2018-01-20T08:08:19.565Z,99.43
2018-01-20T08:09:19.441Z,99.05
2018-01-20T08:10:19.441Z,99.71
2018-01-20T08:11:19.443Z,99.43
2018-01-20T08:12:19.326Z,98.68
2018-01-20T08:13:19.323Z,99.24
2018-01-20T08:14:19.202Z,99.33
2018-01-20T08:15:19.202Z,99.33
2018-01-20T08:16:19.202Z,99.24
2018-01-20T08:17:19.079Z,98.96
2018-01-20T08:18:19.093Z,99.05
2018-01-20T08:19:18.964Z,98.49
2018-01-20T08:20:19.040Z,99.05
2018-01-20T08:21:18.842Z,98.96
2018-01-20T08:22:18.843Z,98.20
2018-01-20T08:23:18.839Z,98.39
2018-01-20T08:24:18.723Z,98.39
2018-01-20T08:25:18.716Z,98.77
2018-01-20T08:26:18.598Z,98.01
2018-01-20T08:27:18.598Z,98.86
2018-01-20T08:28:18.597Z,98.68
2018-01-20T08:29:18.476Z,98.39
2018-01-20T08:30:18.477Z,98.11
2018-01-20T08:31:18.356Z,98.11
2018-01-20T08:32:18.357Z,98.11
2018-01-20T08:33:18.366Z,98.58
2018-01-20T08:34:18.235Z,97.92
2018-01-20T08:35:18.239Z,98.30
2018-01-20T08:36:18.116Z,97.82
2018-01-20T08:37:18.116Z,98.49
2018-01-20T08:38:18.076Z,98.49
2018-01-20T08:39:17.996Z,98.20
2018-01-20T08:40:18.007Z,98.20
2018-01-20T08:41:17.876Z,97.49
2018-01-20T08:42:17.872Z,97.49
2018-01-20T08:43:17.757Z,97.25
2018-01-20T08:44:17.756Z,97.49
2018-01-20T08:45:17.754Z,97.82
2018-01-20T08:46:17.633Z,97.78
2018-01-20T08:47:17.632Z,97.68
2018-01-20T08:48:17.512Z,97.11
2018-01-20T08:49:17.512Z,96.92
2018-01-20T08:50:17.517Z,96.73
2018-01-20T08:51:17.396Z,97.02
2018-01-20T08:52:17.390Z,97.11
2018-01-20T08:53:17.272Z,96.92
2018-01-20T08:54:17.273Z,96.45
2018-01-20T08:55:17.271Z,96.64
2018-01-20T08:56:17.151Z,96.26
2018-01-20T08:57:17.149Z,96.45
2018-01-20T08:58:17.029Z,96.26
2018-01-20T08:59:17.037Z,95.88
2018-01-20T09:00:17.033Z,95.60
2018-01-20T09:01:16.911Z,95.41
2018-01-20T09:02:16.915Z,95.69
2018-01-20T09:03:16.789Z,95.22
2018-01-20T09:04:16.788Z,95.41
2018-01-20T09:05:16.747Z,95.50
2018-01-20T09:06:16.669Z,95.22
2018-01-20T09:07:16.668Z,95.22
2018-01-20T09:08:16.551Z,95.50
2018-01-20T09:09:16.548Z,95.50
2018-01-20T09:10:16.428Z,95.41
2018-01-20T09:11:16.428Z,95.12
2018-01-20T09:12:16.444Z,95.22
2018-01-20T09:13:16.309Z,95.31
2018-01-20T09:14:16.313Z,95.22
2018-01-20T09:15:16.185Z,94.37
2018-01-20T09:16:16.185Z,94.27
2018-01-20T09:17:16.263Z,94.84
2018-01-20T09:18:16.064Z,94.18
2018-01-20T09:19:16.069Z,94.65
2018-01-20T09:20:15.947Z,94.74
2018-01-20T09:21:15.946Z,94.18
2018-01-20T09:22:15.949Z,94.18
2018-01-20T09:23:15.823Z,94.18
2018-01-20T09:24:15.826Z,94.65
2018-01-20T09:25:15.719Z,94.56
2018-01-20T09:26:15.706Z,94.46
2018-01-20T09:27:15.705Z,94.65
2018-01-20T09:28:15.586Z,94.56
2018-01-20T09:29:15.587Z,94.74
2018-01-20T09:30:15.468Z,94.27
2018-01-20T09:31:15.500Z,94.08
2018-01-20T09:32:15.462Z,94.04
2018-01-20T09:33:15.343Z,94.18
2018-01-20T09:34:15.344Z,94.32
2018-01-20T09:35:15.223Z,94.04
2018-01-20T09:36:15.220Z,94.32
2018-01-20T09:37:15.337Z,93.84
2018-01-20T09:38:15.103Z,93.37
2018-01-20T09:39:15.103Z,93.18
2018-01-20T09:40:14.981Z,92.80
2018-01-20T09:41:14.982Z,93.08
2018-01-20T09:42:14.940Z,92.71
2018-01-20T09:43:14.861Z,93.46
2018-01-20T09:44:14.866Z,93.08
2018-01-20T09:45:14.739Z,91.76
2018-01-20T09:46:14.741Z,91.57
2018-01-20T09:47:14.698Z,91.85
2018-01-20T09:48:14.620Z,91.38
2018-01-20T09:49:14.618Z,91.38
2018-01-20T09:50:14.496Z,91.28
2018-01-20T09:51:14.497Z,91.38
2018-01-20T09:52:14.377Z,90.53
2018-01-20T09:53:14.376Z,90.91
2018-01-20T09:54:14.376Z,90.72
2018-01-20T09:55:14.256Z,90.72
2018-01-20T09:56:14.257Z,90.53
2018-01-20T09:57:14.259Z,90.81
2018-01-20T09:58:14.135Z,90.24
2018-01-20T09:59:14.140Z,90.15
2018-01-20T10:00:14.015Z,90.15
2018-01-20T10:01:14.016Z,90.05
2018-01-20T10:02:13.896Z,89.96
2018-01-20T10:03:13.894Z,89.48
2018-01-20T10:04:13.897Z,89.77
2018-01-20T10:05:13.774Z,89.58
2018-01-20T10:06:13.781Z,89.48
2018-01-20T10:07:13.656Z,89.48
2018-01-20T10:08:13.652Z,89.29
2018-01-20T10:09:13.653Z,88.92
2018-01-20T10:10:13.537Z,89.01
2018-01-20T10:11:13.533Z,88.92
2018-01-20T10:12:13.411Z,88.73
2018-01-20T10:13:13.415Z,88.92
2018-01-20T10:14:13.411Z,89.01
2018-01-20T10:15:13.290Z,89.11
2018-01-20T10:16:13.294Z,89.29
2018-01-20T10:17:13.174Z,88.92
2018-01-20T10:18:13.174Z,88.82
2018-01-20T10:19:13.171Z,88.77
2018-01-20T10:20:13.050Z,88.39
2018-01-20T10:21:13.050Z,88.39
2018-01-20T10:22:12.934Z,87.82
2018-01-20T10:23:12.932Z,87.35
2018-01-20T10:24:12.935Z,87.35
2018-01-20T10:25:12.809Z,87.82
2018-01-20T10:26:12.808Z,87.92
2018-01-20T10:27:12.706Z,87.63
2018-01-20T10:28:12.691Z,87.82
2018-01-20T10:29:12.686Z,88.39
2018-01-20T10:30:12.567Z,88.96
2018-01-20T10:31:12.569Z,88.58
2018-01-20T10:32:12.447Z,88.29
2018-01-20T10:33:12.447Z,87.45
2018-01-20T10:34:12.446Z,87.63
2018-01-20T10:35:12.332Z,87.45
2018-01-20T10:36:12.328Z,86.87
2018-01-20T10:37:12.206Z,86.87
2018-01-20T10:38:12.205Z,87.06
2018-01-20T10:39:12.209Z,87.45
2018-01-20T10:40:12.107Z,88.48
2018-01-20T10:41:12.087Z,87.92
2018-01-20T10:42:11.971Z,87.63
2018-01-20T10:43:11.966Z,87.35
2018-01-20T10:44:11.965Z,86.30
2018-01-20T10:45:11.846Z,85.55
2018-01-20T10:46:11.843Z,85.17
2018-01-20T10:47:11.803Z,85.26
2018-01-20T10:48:11.723Z,85.45
2018-01-20T10:49:11.722Z,85.26
2018-01-20T10:50:11.606Z,85.83
2018-01-20T10:51:11.603Z,86.11
2018-01-20T10:52:11.481Z,86.68
2018-01-20T10:53:11.489Z,85.55
2018-01-20T10:54:11.485Z,85.36
2018-01-20T10:55:11.365Z,86.30
2018-01-20T10:56:11.366Z,85.55
2018-01-20T10:57:11.243Z,84.98
2018-01-20T10:58:11.246Z,87.06
2018-01-20T10:59:11.240Z,89.72
2018-01-20T11:00:11.123Z,88.87
2018-01-20T11:01:11.119Z,87.25
2018-01-20T11:02:11.000Z,86.02
2018-01-20T11:03:11.005Z,85.26
2018-01-20T11:04:10.999Z,85.93
2018-01-20T11:05:10.885Z,86.11
2018-01-20T11:06:10.879Z,86.21
2018-01-20T11:07:10.759Z,85.64
2018-01-20T11:08:10.763Z,84.88
2018-01-20T11:09:10.761Z,84.88
2018-01-20T11:10:10.637Z,84.50
2018-01-20T11:11:10.650Z,83.84
2018-01-20T11:12:10.597Z,84.78
2018-01-20T11:13:10.520Z,83.84
2018-01-20T11:14:10.516Z,83.55
2018-01-20T11:15:10.400Z,84.31
2018-01-20T11:16:10.400Z,83.84
2018-01-20T11:17:10.391Z,84.41
2018-01-20T11:18:10.275Z,84.59
2018-01-20T11:19:10.278Z,84.59
2018-01-20T11:20:10.157Z,85.26
2018-01-20T11:21:10.154Z,84.59
2018-01-20T11:22:10.157Z,85.49
2018-01-20T11:23:10.038Z,84.50
2018-01-20T11:24:10.044Z,83.50
2018-01-20T11:25:09.913Z,83.97
2018-01-20T11:26:09.918Z,83.59
2018-01-20T11:27:09.917Z,83.88
2018-01-20T11:28:09.796Z,83.88
2018-01-20T11:29:09.798Z,84.26
2018-01-20T11:30:09.675Z,82.84
2018-01-20T11:31:09.675Z,82.74
2018-01-20T11:32:09.675Z,83.12
2018-01-20T11:33:09.554Z,84.36
2018-01-20T11:34:09.559Z,85.49
2018-01-20T11:35:09.434Z,84.45
2018-01-20T11:36:09.438Z,84.36
2018-01-20T11:37:09.431Z,84.45
2018-01-20T11:38:09.314Z,85.40
2018-01-20T11:39:09.313Z,84.45
2018-01-20T11:40:09.189Z,84.74
2018-01-20T11:41:09.192Z,84.78
2018-01-20T11:42:09.189Z,83.94
2018-01-20T11:43:09.071Z,85.11
2018-01-20T11:44:09.073Z,84.50
2018-01-20T11:45:08.950Z,84.41
2018-01-20T11:46:08.948Z,84.41
2018-01-20T11:47:09.028Z,84.50
2018-01-20T11:48:08.830Z,84.59
2018-01-20T11:49:08.830Z,84.69
2018-01-20T11:50:08.708Z,84.59
2018-01-20T11:51:08.707Z,84.50
2018-01-20T11:52:08.707Z,84.98
2018-01-20T11:53:08.589Z,84.88
2018-01-20T11:54:08.587Z,83.74
2018-01-20T11:55:08.466Z,84.59
2018-01-20T11:56:08.465Z,85.17
2018-01-20T11:57:08.476Z,85.36
2018-01-20T11:58:08.351Z,84.59
2018-01-20T11:59:08.363Z,84.22
2018-01-20T12:00:08.226Z,84.69
2018-01-20T12:01:08.228Z,84.50
2018-01-20T12:02:09.072Z,84.69
2018-01-20T12:03:08.107Z,85.36
2018-01-20T12:04:08.105Z,85.64
2018-01-20T12:05:08.068Z,85.45
2018-01-20T12:06:07.990Z,85.26
2018-01-20T12:07:07.986Z,86.68
2018-01-20T12:08:07.868Z,86.11
2018-01-20T12:09:07.863Z,86.21
2018-01-20T12:10:07.864Z,85.45
2018-01-20T12:11:07.743Z,85.26
2018-01-20T12:12:07.742Z,84.59
2018-01-20T12:13:07.626Z,85.26
2018-01-20T12:14:07.622Z,85.26
2018-01-20T12:15:07.626Z,85.55
2018-01-20T12:16:07.502Z,85.07
2018-01-20T12:17:07.508Z,85.55
2018-01-20T12:18:07.393Z,84.69
2018-01-20T12:19:07.387Z,85.93
2018-01-20T12:20:07.385Z,85.64
2018-01-20T12:21:07.260Z,86.21
2018-01-20T12:22:07.262Z,85.74
2018-01-20T12:23:07.140Z,85.45
2018-01-20T12:24:07.140Z,85.36
2018-01-20T12:25:07.142Z,85.36
2018-01-20T12:27:07.034Z,85.26
2018-01-20T12:28:06.902Z,86.49
2018-01-20T12:29:06.897Z,87.16
2018-01-20T12:30:06.898Z,86.68
2018-01-20T12:31:06.777Z,86.11
2018-01-20T12:32:06.779Z,85.74
2018-01-20T12:33:06.657Z,86.68
2018-01-20T12:34:06.658Z,86.49
2018-01-20T12:35:06.656Z,87.25
2018-01-20T12:36:06.537Z,87.73
2018-01-20T12:37:06.537Z,87.45
2018-01-20T12:38:06.418Z,87.63
2018-01-20T12:39:06.415Z,87.73
2018-01-20T12:40:06.421Z,88.10
2018-01-20T12:41:06.294Z,88.01
2018-01-20T12:42:06.296Z,88.10
2018-01-20T12:43:06.178Z,88.77
2018-01-20T12:44:06.175Z,88.48
2018-01-20T12:45:06.178Z,88.68
2018-01-20T12:47:06.055Z,88.77
2018-01-20T12:48:05.938Z,88.87
2018-01-20T12:49:05.932Z,87.92
2018-01-20T12:50:05.942Z,88.68
2018-01-20T12:51:05.812Z,89.06
2018-01-20T12:52:05.813Z,88.77
2018-01-20T12:53:05.696Z,89.62
2018-01-20T12:54:05.703Z,89.34